UNS100 SKBO-MPTO
Flight info
| Callsign | UNS100 |
|---|---|
| Flight time | N/A |
| Altitude | 36000 |
| Route | TOBKI1S VASIL UL423 PULOX DCT SIGUN ISOKO2A |
| Aircraft | B720/M-SDFGHRWY/C |
Departure
| Time | N/A |
|---|---|
| Airport | El Dorado International Airport (SKBO) |
Arrival
| Time | 2026-05-06 20:36 |
|---|---|
| Airport | Tocumen International Airport (MPTO) |
| Time | Latitude | Longitude | Altitude | Speed | Heading |
|---|---|---|---|---|---|
| 2026-05-06 20:33 | 8.96620 | -79.43850 | 1751 ft | 206 kts | 29° |
| 2026-05-06 20:33 | 8.97884 | -79.43134 | 1484 ft | 207 kts | 29° |
| 2026-05-06 20:33 | 8.99146 | -79.42422 | 1232 ft | 209 kts | 28° |
| 2026-05-06 20:34 | 9.00335 | -79.41749 | 949 ft | 179 kts | 29° |
| 2026-05-06 20:34 | 9.01435 | -79.41130 | 706 ft | 147 kts | 29° |
| 2026-05-06 20:34 | 9.02291 | -79.40646 | 462 ft | 138 kts | 28° |
| 2026-05-06 20:34 | 9.03170 | -79.40198 | 343 ft | 140 kts | 26° |
| 2026-05-06 20:35 | 9.03998 | -79.39716 | 185 ft | 136 kts | 31° |
| 2026-05-06 20:35 | 9.04814 | -79.39235 | 59 ft | 134 kts | 30° |
| 2026-05-06 20:35 | 9.05561 | -79.38807 | 39 ft | 105 kts | 28° |
| 2026-05-06 20:35 | 9.06068 | -79.38519 | 47 ft | 63 kts | 30° |
| 2026-05-06 20:36 | 9.06320 | -79.38392 | 50 ft | 28 kts | 5° |
| 2026-05-06 20:36 | 9.06494 | -79.38384 | 54 ft | 22 kts | 356° |
| 2026-05-06 20:36 | 9.06630 | -79.38402 | 57 ft | 15 kts | 330° |
| 2026-05-06 20:36 | 9.06695 | -79.38443 | 59 ft | 9 kts | 356° |
| 2026-05-06 20:37 | 9.06755 | -79.38419 | 60 ft | 9 kts | 28° |
| 2026-05-06 20:37 | 9.06786 | -79.38422 | 60 ft | 3 kts | 302° |
| 2026-05-06 20:37 | 9.06790 | -79.38444 | 61 ft | 2 kts | 278° |
| 2026-05-06 20:37 | 9.06792 | -79.38457 | 62 ft | 0 kts | 279° |
| 2026-05-06 20:38 | 9.06794 | -79.38466 | 62 ft | 1 kts | 280° |
| 2026-05-06 20:38 | 9.06794 | -79.38469 | 62 ft | 0 kts | 280° |
| 2026-05-06 21:12 | 9.06791 | -79.38454 | 61 ft | 2 kts | 280° |
| 2026-05-06 21:12 | 9.06789 | -79.38440 | 61 ft | 1 kts | 280° |
| 2026-05-06 21:12 | 9.06787 | -79.38430 | 61 ft | 2 kts | 271° |
| 2026-05-06 21:13 | 9.06790 | -79.38415 | 60 ft | 2 kts | 250° |
| 2026-05-06 21:13 | 9.06797 | -79.38401 | 59 ft | 2 kts | 230° |
| 2026-05-06 21:13 | 9.06808 | -79.38391 | 59 ft | 1 kts | 211° |
| 2026-05-06 21:13 | 9.06814 | -79.38388 | 59 ft | 1 kts | 207° |
| 2026-05-06 21:14 | 9.06816 | -79.38387 | 59 ft | 0 kts | 207° |
| 2026-05-06 21:15 | 9.06815 | -79.38388 | 59 ft | 0 kts | 207° |